Time;durP1;ratioP1;P1;durP2;ratioP2;P2;SDS_P1;SDS_P2;PMS_P1;PMS_P2;Temp;Humidity;BMP_temperature;BMP_pressure;BME280_temperature;BME280_humidity;BME280_pressure;Samples;Min_cycle;Max_cycle;Signal;HPM_P1;HPM_P2
2023/07/31 00:01:05;;;;;;;11.63;9.03;;;16.30;99.90;;;;;;5019725;28;20457;-67
2023/07/31 00:03:32;;;;;;;13.50;7.13;;;16.30;99.90;;;;;;5027451;28;20528;-68
2023/07/31 00:06:01;;;;;;;8.00;7.60;;;16.30;99.90;;;;;;5026981;28;20951;-66
2023/07/31 00:08:29;;;;;;;8.07;7.37;;;16.30;99.90;;;;;;5020491;28;20468;-67
2023/07/31 00:10:55;;;;;;;7.17;6.87;;;16.30;99.90;;;;;;5016578;28;20488;-69
2023/07/31 00:13:22;;;;;;;7.03;6.63;;;16.30;99.90;;;;;;5027468;28;20775;-68
2023/07/31 00:15:49;;;;;;;6.83;6.43;;;16.30;99.90;;;;;;5028583;28;20488;-67
2023/07/31 00:18:16;;;;;;;9.03;8.37;;;16.30;99.90;;;;;;5024545;28;20465;-66
2023/07/31 00:20:41;;;;;;;5.50;5.40;;;16.30;99.90;;;;;;5025182;28;20491;-67
2023/07/31 00:23:10;;;;;;;8.87;8.00;;;16.30;99.90;;;;;;5028008;28;20464;-68
2023/07/31 00:25:37;;;;;;;7.00;6.33;;;16.40;99.90;;;;;;5014154;28;20206;-66
2023/07/31 00:28:04;;;;;;;5.70;5.40;;;16.30;99.90;;;;;;5021573;28;20464;-67
2023/07/31 00:30:32;;;;;;;6.10;5.80;;;16.30;99.90;;;;;;5028050;28;20480;-68
2023/07/31 00:32:59;;;;;;;6.97;6.17;;;16.30;99.90;;;;;;5028086;28;20500;-68
2023/07/31 00:35:26;;;;;;;5.77;5.47;;;16.30;99.90;;;;;;5019476;28;20478;-68
2023/07/31 00:37:53;;;;;;;5.60;5.40;;;16.30;99.90;;;;;;5019735;28;20457;-68
2023/07/31 00:40:21;;;;;;;6.53;6.07;;;16.30;99.90;;;;;;5020091;28;20478;-69
2023/07/31 00:42:48;;;;;;;14.87;4.73;;;16.30;99.90;;;;;;5027186;28;20465;-66
2023/07/31 00:45:15;;;;;;;4.60;4.30;;;16.30;99.90;;;;;;5028119;28;20490;-67
2023/07/31 00:47:43;;;;;;;5.73;5.23;;;16.30;99.90;;;;;;5028112;28;20465;-68
2023/07/31 00:50:11;;;;;;;8.40;4.97;;;16.30;99.90;;;;;;5020528;28;21052;-67
2023/07/31 00:52:38;;;;;;;5.27;4.77;;;16.30;99.90;;;;;;5021974;28;20587;-68
2023/07/31 00:55:06;;;;;;;4.70;4.37;;;16.30;99.90;;;;;;5027853;28;20495;-69
2023/07/31 00:57:37;;;;;;;4.20;4.00;;;16.30;99.90;;;;;;5022520;28;20841;-68
2023/07/31 01:00:05;;;;;;;5.20;4.67;;;16.30;99.90;;;;;;5017622;28;20974;-66
2023/07/31 01:02:31;;;;;;;10.60;4.03;;;16.30;99.90;;;;;;5018723;28;20457;-67
2023/07/31 01:04:58;;;;;;;5.20;4.83;;;16.30;99.90;;;;;;5027853;28;20484;-69
2023/07/31 01:07:33;;;;;;;7.57;4.80;;;16.40;99.90;;;;;;5027499;28;20743;-67
2023/07/31 01:10:08;;;;;;;6.53;4.30;;;16.30;99.90;;;;;;5015115;28;20572;-67
2023/07/31 01:12:39;;;;;;;5.37;5.00;;;16.30;99.90;;;;;;5022336;28;20499;-68
2023/07/31 01:15:10;;;;;;;8.50;5.73;;;16.30;99.90;;;;;;5025238;28;20488;-68
2023/07/31 01:17:37;;;;;;;7.60;5.57;;;16.30;99.90;;;;;;5025946;28;20607;-67
2023/07/31 01:20:09;;;;;;;18.33;5.40;;;16.30;99.90;;;;;;5022792;28;20468;-68
2023/07/31 01:23:09;;;;;;;5.90;5.40;;;16.30;99.90;;;;;;5023895;28;20465;-68
2023/07/31 01:26:01;;;;;;;5.90;4.70;;;16.30;99.90;;;;;;4982722;28;20915;-69
2023/07/31 01:28:37;;;;;;;6.97;4.77;;;16.30;99.90;;;;;;5026855;28;20479;-68
2023/07/31 01:31:07;;;;;;;5.53;4.47;;;16.30;99.90;;;;;;5023702;28;20554;-68
2023/07/31 01:33:34;;;;;;;5.30;4.73;;;16.30;99.90;;;;;;5026735;28;21179;-68
2023/07/31 01:36:03;;;;;;;3.77;3.57;;;16.40;99.90;;;;;;5023353;28;20464;-67
2023/07/31 01:38:30;;;;;;;6.60;4.57;;;16.40;99.90;;;;;;5031255;28;20533;-69
2023/07/31 01:40:59;;;;;;;6.73;4.90;;;16.40;99.90;;;;;;5027720;28;20461;-68
2023/07/31 01:43:26;;;;;;;3.83;3.53;;;16.50;99.90;;;;;;5029883;28;20775;-68
2023/07/31 01:45:53;;;;;;;9.07;5.53;;;16.50;99.90;;;;;;5031002;28;20935;-68
2023/07/31 01:48:20;;;;;;;7.10;5.13;;;16.60;99.90;;;;;;5020170;28;20461;-68
2023/07/31 01:50:46;;;;;;;4.90;4.00;;;16.60;99.90;;;;;;5024200;28;20538;-68
2023/07/31 01:53:13;;;;;;;4.00;3.77;;;16.60;99.90;;;;;;5027563;28;20461;-67
2023/07/31 01:55:40;;;;;;;3.33;3.23;;;16.70;99.90;;;;;;5026977;28;20465;-68
2023/07/31 01:58:09;;;;;;;4.40;4.00;;;16.70;99.90;;;;;;5031151;28;20469;-69
2023/07/31 02:00:37;;;;;;;3.93;3.53;;;16.80;99.90;;;;;;5031257;28;20837;-68
2023/07/31 02:03:04;;;;;;;4.40;4.10;;;16.80;99.90;;;;;;5026015;28;20507;-68
2023/07/31 02:05:31;;;;;;;3.87;3.67;;;16.80;99.90;;;;;;5021193;28;20878;-68
2023/07/31 02:07:59;;;;;;;3.43;3.13;;;16.80;99.90;;;;;;5021072;28;20472;-68
2023/07/31 02:10:27;;;;;;;3.37;3.17;;;16.80;99.90;;;;;;5031039;28;20464;-68
2023/07/31 02:12:54;;;;;;;9.73;4.30;;;16.80;99.90;;;;;;5030788;28;21002;-68
2023/07/31 02:15:22;;;;;;;3.37;3.17;;;16.90;99.90;;;;;;5030491;28;20943;-68
2023/07/31 02:17:48;;;;;;;9.07;3.47;;;16.90;99.90;;;;;;5021627;28;20492;-68
2023/07/31 02:20:15;;;;;;;4.13;2.93;;;16.90;99.90;;;;;;5026117;28;20959;-67
2023/07/31 02:22:42;;;;;;;3.10;3.00;;;17.00;99.90;;;;;;5030584;28;20468;-67
2023/07/31 02:25:09;;;;;;;2.70;2.60;;;16.90;99.90;;;;;;5020752;28;20464;-67
2023/07/31 02:27:36;;;;;;;3.97;3.57;;;16.90;99.90;;;;;;5029359;28;20465;-68
2023/07/31 02:30:03;;;;;;;6.90;3.40;;;17.00;99.90;;;;;;5030369;28;20457;-68
2023/07/31 02:32:32;;;;;;;3.13;3.03;;;17.00;99.90;;;;;;5026752;28;20898;-68
2023/07/31 02:34:59;;;;;;;4.00;3.73;;;17.00;99.90;;;;;;5024926;28;20957;-68
2023/07/31 02:37:28;;;;;;;4.20;3.80;;;17.00;99.90;;;;;;5020521;28;20469;-67
2023/07/31 02:39:56;;;;;;;4.10;3.57;;;17.00;99.90;;;;;;5023277;28;20519;-68
2023/07/31 02:42:23;;;;;;;4.37;4.17;;;17.10;99.90;;;;;;5028119;28;20461;-68
2023/07/31 02:44:55;;;;;;;4.57;4.27;;;17.10;99.90;;;;;;5030191;28;20487;-68
2023/07/31 02:47:22;;;;;;;2.90;2.80;;;17.10;99.90;;;;;;5029970;28;20457;-67
2023/07/31 02:49:51;;;;;;;4.60;4.20;;;17.10;99.90;;;;;;5021315;28;20877;-68
2023/07/31 02:52:19;;;;;;;6.60;5.30;;;17.10;99.90;;;;;;5025059;28;20488;-67
2023/07/31 02:54:47;;;;;;;4.03;3.73;;;17.20;99.90;;;;;;5022314;28;20816;-67
2023/07/31 02:57:13;;;;;;;3.97;3.77;;;17.10;99.90;;;;;;5029985;28;20888;-69
2023/07/31 02:59:41;;;;;;;3.50;3.17;;;17.20;99.90;;;;;;5023636;28;20939;-68
2023/07/31 03:02:07;;;;;;;7.47;3.60;;;17.20;99.90;;;;;;5018238;28;20470;-67
2023/07/31 03:04:35;;;;;;;11.40;5.30;;;17.20;99.90;;;;;;5029284;28;20488;-68
2023/07/31 03:07:04;;;;;;;4.03;3.83;;;17.20;99.90;;;;;;5023131;28;20535;-68
2023/07/31 03:09:31;;;;;;;4.40;4.20;;;17.20;99.90;;;;;;5028179;28;20471;-67
2023/07/31 03:11:58;;;;;;;4.93;4.50;;;17.20;99.90;;;;;;5022117;28;20513;-67
2023/07/31 03:14:26;;;;;;;5.33;4.93;;;17.20;99.90;;;;;;5024863;28;20494;-67
2023/07/31 03:16:53;;;;;;;5.70;5.30;;;17.20;99.90;;;;;;5029607;28;20460;-66
2023/07/31 03:19:20;;;;;;;4.90;4.60;;;17.20;99.90;;;;;;5029521;28;20958;-67
2023/07/31 03:21:47;;;;;;;4.60;4.30;;;17.20;99.90;;;;;;5025398;28;20818;-68
2023/07/31 03:24:17;;;;;;;4.20;4.00;;;17.20;99.90;;;;;;5018841;28;20476;-69
2023/07/31 03:26:44;;;;;;;3.93;3.83;;;17.20;99.90;;;;;;5022914;28;20489;-68
2023/07/31 03:29:10;;;;;;;4.07;3.87;;;17.20;99.90;;;;;;5024675;28;20461;-68
2023/07/31 03:31:37;;;;;;;7.63;5.13;;;17.20;99.90;;;;;;5025378;28;20493;-66
2023/07/31 03:34:05;;;;;;;26.20;5.33;;;17.20;99.90;;;;;;5020209;28;20457;-66
2023/07/31 03:36:32;;;;;;;5.10;4.80;;;17.20;99.90;;;;;;5020651;28;20472;-68
2023/07/31 03:38:59;;;;;;;3.67;3.47;;;17.30;99.90;;;;;;5022304;28;20636;-68
2023/07/31 03:41:27;;;;;;;3.20;3.10;;;17.30;99.90;;;;;;5022507;28;20484;-68
2023/07/31 03:43:55;;;;;;;4.53;4.23;;;17.30;99.90;;;;;;5026826;28;20461;-68
2023/07/31 03:46:22;;;;;;;4.47;4.20;;;17.30;99.90;;;;;;5025995;28;20514;-67
2023/07/31 03:48:50;;;;;;;6.73;5.53;;;17.30;99.90;;;;;;5028639;28;20474;-68
2023/07/31 03:51:17;;;;;;;4.00;3.90;;;17.30;99.90;;;;;;5026942;28;20481;-67
2023/07/31 03:53:45;;;;;;;6.77;5.37;;;17.40;99.90;;;;;;5019540;28;20480;-68
2023/07/31 03:56:12;;;;;;;13.17;6.03;;;17.40;99.90;;;;;;5026651;28;20462;-68
2023/07/31 03:58:40;;;;;;;4.40;4.30;;;17.30;99.90;;;;;;5025726;28;20476;-68
2023/07/31 04:01:08;;;;;;;5.27;5.07;;;17.20;99.90;;;;;;5028532;28;20526;-66
2023/07/31 04:03:35;;;;;;;5.67;5.27;;;17.20;99.90;;;;;;5028439;28;20488;-68
2023/07/31 04:06:02;;;;;;;4.90;4.80;;;17.20;99.90;;;;;;5025942;28;20476;-68
2023/07/31 04:08:29;;;;;;;6.13;5.70;;;17.20;99.90;;;;;;5021387;28;21188;-68
2023/07/31 04:10:56;;;;;;;6.33;5.87;;;17.20;99.90;;;;;;5028249;28;20463;-68
2023/07/31 04:13:23;;;;;;;5.57;5.10;;;17.20;99.90;;;;;;5023175;28;20457;-68
2023/07/31 04:15:54;;;;;;;4.43;4.33;;;17.10;99.90;;;;;;5022998;28;20512;-68
2023/07/31 04:18:20;;;;;;;4.33;4.13;;;17.10;99.90;;;;;;5014771;28;20522;-67
2023/07/31 04:20:47;;;;;;;5.40;5.07;;;17.10;99.90;;;;;;5009223;28;20476;-66
2023/07/31 04:23:15;;;;;;;4.53;4.33;;;17.10;99.90;;;;;;5017428;28;20512;-66
2023/07/31 04:25:43;;;;;;;6.87;5.93;;;17.10;99.90;;;;;;5016677;28;20460;-68
2023/07/31 04:28:10;;;;;;;6.90;4.20;;;17.10;99.90;;;;;;5010792;28;20854;-69
2023/07/31 04:30:38;;;;;;;5.07;4.77;;;17.10;99.90;;;;;;5015894;28;20469;-68
2023/07/31 04:33:06;;;;;;;4.30;4.00;;;17.10;99.90;;;;;;5016952;28;20481;-67
2023/07/31 04:35:33;;;;;;;10.77;6.17;;;17.20;99.90;;;;;;5011140;28;20464;-67
2023/07/31 04:38:00;;;;;;;5.43;4.93;;;17.20;99.90;;;;;;5015700;28;20485;-68
2023/07/31 04:40:27;;;;;;;5.20;4.67;;;17.20;99.90;;;;;;5013614;28;20476;-68
2023/07/31 04:42:53;;;;;;;4.60;4.30;;;17.20;99.90;;;;;;5019289;28;20559;-67
2023/07/31 04:45:20;;;;;;;7.70;6.40;;;17.20;99.90;;;;;;5008544;28;20460;-67
2023/07/31 04:47:49;;;;;;;5.40;5.10;;;17.20;99.90;;;;;;5009921;28;20469;-69
2023/07/31 04:50:18;;;;;;;5.63;5.00;;;17.30;99.90;;;;;;5016821;28;20457;-69
2023/07/31 04:52:45;;;;;;;5.10;4.73;;;17.40;99.90;;;;;;5011838;28;20496;-68
2023/07/31 04:55:13;;;;;;;4.43;4.23;;;17.40;99.90;;;;;;5016093;28;20644;-68
2023/07/31 04:57:41;;;;;;;3.93;3.83;;;17.50;99.90;;;;;;5015217;28;20565;-69
2023/07/31 05:00:09;;;;;;;5.93;5.37;;;17.60;99.90;;;;;;5004842;28;20453;-69
2023/07/31 05:02:38;;;;;;;6.80;5.47;;;17.60;99.90;;;;;;5011806;28;20466;-69
2023/07/31 05:05:06;;;;;;;4.63;4.33;;;17.70;99.90;;;;;;5007043;28;20475;-68
2023/07/31 05:07:34;;;;;;;4.57;4.43;;;17.70;99.90;;;;;;5018458;28;20934;-67
2023/07/31 05:10:01;;;;;;;5.67;5.37;;;17.70;99.90;;;;;;5019417;28;21092;-69
2023/07/31 05:12:29;;;;;;;6.40;5.93;;;17.80;99.90;;;;;;5015771;28;20857;-68
2023/07/31 05:14:55;;;;;;;8.23;7.53;;;17.90;99.90;;;;;;5006491;28;20961;-68
2023/07/31 05:17:23;;;;;;;7.10;6.63;;;17.90;99.90;;;;;;5009897;28;21146;-68
2023/07/31 05:19:51;;;;;;;7.37;6.87;;;17.90;99.90;;;;;;5013084;28;20520;-69
2023/07/31 05:22:17;;;;;;;5.63;5.40;;;17.90;99.90;;;;;;5014336;28;20461;-68
2023/07/31 05:24:46;;;;;;;8.87;8.53;;;18.00;99.90;;;;;;5003670;28;20464;-67
2023/07/31 05:27:18;;;;;;;7.27;6.67;;;18.00;99.90;;;;;;5011689;28;20500;-69
2023/07/31 05:29:45;;;;;;;5.80;5.50;;;17.90;99.90;;;;;;5022188;28;20924;-67
2023/07/31 05:32:12;;;;;;;5.33;5.13;;;17.90;99.90;;;;;;5012707;28;21031;-67
2023/07/31 05:34:38;;;;;;;5.10;5.00;;;17.90;99.90;;;;;;5005427;28;20461;-67
2023/07/31 05:37:06;;;;;;;7.17;6.73;;;17.90;99.90;;;;;;5017476;28;20457;-68
2023/07/31 05:39:34;;;;;;;13.70;7.13;;;17.90;99.90;;;;;;5019711;28;20948;-68
2023/07/31 05:42:03;;;;;;;6.77;6.50;;;17.80;99.90;;;;;;5022413;28;20552;-69
2023/07/31 05:44:31;;;;;;;16.70;15.47;;;17.80;99.90;;;;;;5011496;28;20452;-67
2023/07/31 05:46:58;;;;;;;13.67;13.03;;;17.70;99.90;;;;;;5008722;28;20478;-68
2023/07/31 05:49:25;;;;;;;12.77;12.07;;;17.50;99.90;;;;;;5008842;28;20470;-69
2023/07/31 05:51:52;;;;;;;13.53;12.40;;;17.30;99.90;;;;;;5020878;28;20499;-67
2023/07/31 05:54:20;;;;;;;10.30;9.87;;;17.10;99.90;;;;;;5019843;28;20468;-68
2023/07/31 05:56:47;;;;;;;10.50;9.70;;;17.10;99.90;;;;;;5011734;28;20955;-68
2023/07/31 05:59:16;;;;;;;8.77;8.47;;;17.00;99.90;;;;;;5009123;28;20684;-68
2023/07/31 06:01:44;;;;;;;9.10;8.70;;;17.00;99.90;;;;;;5000402;28;20474;-67
2023/07/31 06:04:11;;;;;;;17.03;8.80;;;16.90;99.90;;;;;;5001574;28;20493;-68
2023/07/31 06:06:38;;;;;;;9.53;9.00;;;17.00;99.90;;;;;;5014851;28;20460;-69
2023/07/31 06:09:06;;;;;;;8.73;8.33;;;16.90;99.90;;;;;;5008972;28;20462;-68
2023/07/31 06:11:34;;;;;;;8.80;8.40;;;16.90;99.90;;;;;;5005007;28;20548;-69
2023/07/31 06:14:00;;;;;;;8.20;7.90;;;17.00;99.90;;;;;;5010970;28;20466;-67
2023/07/31 06:16:29;;;;;;;8.43;7.97;;;17.00;99.90;;;;;;5021556;28;20480;-70
2023/07/31 06:18:56;;;;;;;7.80;7.40;;;17.00;99.90;;;;;;5022687;28;20467;-69
2023/07/31 06:21:22;;;;;;;6.97;6.57;;;17.00;99.90;;;;;;5026774;28;20515;-68
2023/07/31 06:23:50;;;;;;;7.50;7.00;;;17.00;99.90;;;;;;5026562;28;20472;-70
2023/07/31 06:26:16;;;;;;;8.77;7.30;;;17.10;99.90;;;;;;5021229;28;20471;-71
2023/07/31 06:28:43;;;;;;;5.50;5.40;;;17.10;99.90;;;;;;5024547;28;20472;-68
2023/07/31 06:31:10;;;;;;;6.63;6.30;;;17.10;99.90;;;;;;5021664;28;20895;-68
2023/07/31 06:33:38;;;;;;;5.07;4.93;;;17.20;99.90;;;;;;5028861;28;20495;-68
2023/07/31 06:36:06;;;;;;;6.03;5.83;;;17.30;99.90;;;;;;5024717;28;20465;-66
2023/07/31 06:38:33;;;;;;;5.00;4.90;;;17.30;99.90;;;;;;5016841;28;20468;-67
2023/07/31 06:40:59;;;;;;;6.80;6.30;;;17.30;99.90;;;;;;5014175;28;20470;-68
2023/07/31 06:43:27;;;;;;;6.27;5.97;;;17.30;99.90;;;;;;5024701;28;20453;-69
2023/07/31 06:45:54;;;;;;;7.13;6.73;;;17.30;99.90;;;;;;5020767;28;20993;-68
2023/07/31 06:48:21;;;;;;;7.00;6.00;;;17.20;99.90;;;;;;5026841;28;20487;-67
2023/07/31 06:50:49;;;;;;;5.93;5.73;;;17.20;99.90;;;;;;5022830;28;20484;-69
2023/07/31 06:53:16;;;;;;;6.83;6.33;;;17.20;99.90;;;;;;5018425;28;20497;-68
2023/07/31 06:55:43;;;;;;;6.83;6.53;;;17.30;99.90;;;;;;5026291;28;20467;-68
2023/07/31 06:58:10;;;;;;;7.03;6.73;;;17.30;99.90;;;;;;5024659;28;20453;-68
2023/07/31 07:00:37;;;;;;;7.83;7.40;;;17.30;99.90;;;;;;5023304;28;20979;-68
2023/07/31 07:03:05;;;;;;;6.43;6.20;;;17.20;99.90;;;;;;5022908;28;20884;-68
2023/07/31 07:05:31;;;;;;;6.30;6.10;;;17.30;99.90;;;;;;5025905;28;20572;-67
2023/07/31 07:07:59;;;;;;;9.07;8.67;;;17.40;99.90;;;;;;5025953;28;20489;-66
2023/07/31 07:10:26;;;;;;;9.40;9.00;;;17.30;99.90;;;;;;5021709;28;20760;-67
2023/07/31 07:12:56;;;;;;;9.00;8.70;;;17.30;99.90;;;;;;5020229;28;20850;-67
2023/07/31 07:15:23;;;;;;;8.03;7.73;;;17.20;99.90;;;;;;5018348;28;21060;-67
2023/07/31 07:17:50;;;;;;;10.83;9.60;;;17.20;99.90;;;;;;5025327;28;20461;-68
2023/07/31 07:20:16;;;;;;;8.37;7.97;;;17.20;99.90;;;;;;5023169;28;20457;-67
2023/07/31 07:22:43;;;;;;;6.00;5.80;;;17.10;99.90;;;;;;5024312;28;20596;-68
2023/07/31 07:25:11;;;;;;;6.67;6.33;;;17.10;99.90;;;;;;5016662;28;20829;-67
2023/07/31 07:27:38;;;;;;;8.43;8.13;;;17.20;99.90;;;;;;5024244;28;20531;-67
2023/07/31 07:30:07;;;;;;;8.50;7.77;;;17.00;99.90;;;;;;5025526;28;20460;-70
2023/07/31 07:32:34;;;;;;;5.80;5.60;;;17.00;99.90;;;;;;5023152;28;20853;-71
2023/07/31 07:35:02;;;;;;;5.97;5.77;;;17.00;99.90;;;;;;5021377;28;20488;-69
2023/07/31 07:37:29;;;;;;;7.00;6.60;;;17.00;99.90;;;;;;5025493;28;20457;-67
2023/07/31 07:39:57;;;;;;;6.30;6.10;;;16.90;99.90;;;;;;5015360;28;20468;-70
2023/07/31 07:42:25;;;;;;;5.60;5.43;;;16.90;99.90;;;;;;5023606;28;20463;-68
2023/07/31 07:44:52;;;;;;;7.17;6.77;;;17.00;99.90;;;;;;5020663;28;20774;-67
2023/07/31 07:47:19;;;;;;;6.77;6.10;;;17.10;99.90;;;;;;5022229;28;20453;-67
2023/07/31 07:49:45;;;;;;;5.83;5.63;;;17.00;99.90;;;;;;5022006;28;20453;-69
2023/07/31 07:52:12;;;;;;;5.60;5.40;;;17.00;99.90;;;;;;5017438;28;20806;-68
2023/07/31 07:54:39;;;;;;;6.10;5.50;;;17.10;99.90;;;;;;5027520;28;20469;-68
2023/07/31 07:57:07;;;;;;;6.03;5.73;;;17.10;99.90;;;;;;5020473;28;20508;-67
2023/07/31 07:59:35;;;;;;;6.07;5.87;;;17.10;99.90;;;;;;5024217;28;20449;-67
2023/07/31 08:02:02;;;;;;;5.80;5.53;;;17.00;99.90;;;;;;5026600;28;20445;-68
2023/07/31 08:04:29;;;;;;;5.30;5.20;;;17.00;99.90;;;;;;5019001;28;20489;-68
2023/07/31 08:06:56;;;;;;;6.80;6.20;;;16.90;99.90;;;;;;5021132;28;20461;-68
2023/07/31 08:09:23;;;;;;;8.50;7.87;;;16.90;99.90;;;;;;5020239;28;21959;-68
2023/07/31 08:11:50;;;;;;;5.53;5.33;;;16.90;99.90;;;;;;5023919;28;20959;-70
2023/07/31 08:14:17;;;;;;;5.73;5.50;;;16.90;99.90;;;;;;5024826;28;20496;-67
2023/07/31 08:16:47;;;;;;;4.60;4.40;;;16.80;99.90;;;;;;5019488;28;20833;-67
2023/07/31 08:19:14;;;;;;;4.43;4.23;;;16.70;99.90;;;;;;5020754;28;20461;-68
2023/07/31 08:21:40;;;;;;;5.70;5.43;;;16.70;99.90;;;;;;5018857;28;20473;-68
2023/07/31 08:24:08;;;;;;;4.33;4.13;;;16.90;99.90;;;;;;5024993;28;20448;-70
2023/07/31 08:26:35;;;;;;;3.97;3.80;;;16.90;99.90;;;;;;5025303;28;20461;-69
2023/07/31 08:29:02;;;;;;;5.93;5.33;;;17.20;99.90;;;;;;5023704;28;20511;-68
2023/07/31 08:31:29;;;;;;;5.83;5.53;;;17.30;99.90;;;;;;5017551;28;21192;-69
2023/07/31 08:33:57;;;;;;;5.70;5.40;;;17.40;99.90;;;;;;5014083;28;21086;-67
2023/07/31 08:36:24;;;;;;;7.13;6.53;;;17.50;99.90;;;;;;5023095;28;20461;-69
2023/07/31 08:38:51;;;;;;;5.00;4.80;;;17.50;99.90;;;;;;5019464;28;20780;-68
2023/07/31 08:41:18;;;;;;;7.50;6.80;;;17.60;99.90;;;;;;5018489;28;20457;-68
2023/07/31 08:43:46;;;;;;;6.07;5.57;;;17.50;99.90;;;;;;5021121;28;20469;-67
2023/07/31 08:46:14;;;;;;;5.90;5.60;;;17.40;99.90;;;;;;5015446;28;20472;-67
2023/07/31 08:48:43;;;;;;;7.07;6.67;;;17.30;99.90;;;;;;5019288;28;20542;-70
2023/07/31 08:51:12;;;;;;;5.63;5.43;;;17.30;99.90;;;;;;5024585;28;20540;-68
2023/07/31 08:53:38;;;;;;;6.50;5.90;;;17.30;99.90;;;;;;5022340;28;20494;-66
2023/07/31 08:56:07;;;;;;;7.10;6.60;;;17.10;99.90;;;;;;5019802;28;20464;-67
2023/07/31 08:58:35;;;;;;;4.87;4.67;;;17.10;99.90;;;;;;5018716;28;20468;-69
2023/07/31 09:01:05;;;;;;;4.90;4.50;;;17.10;99.90;;;;;;5023771;28;20471;-67
2023/07/31 09:03:35;;;;;;;6.00;4.60;;;17.20;99.90;;;;;;5018982;28;20469;-68
2023/07/31 09:06:06;;;;;;;3.97;3.87;;;17.40;99.90;;;;;;5021240;28;20496;-67
2023/07/31 09:08:34;;;;;;;4.07;3.87;;;17.60;99.90;;;;;;5018031;28;20971;-68
2023/07/31 09:11:03;;;;;;;4.10;4.00;;;17.60;99.90;;;;;;5025300;28;20465;-68
2023/07/31 09:13:31;;;;;;;4.53;4.23;;;17.70;99.90;;;;;;5022825;28;20493;-69
2023/07/31 09:15:58;;;;;;;4.27;4.10;;;17.60;99.90;;;;;;5009180;28;20568;-69
2023/07/31 09:18:24;;;;;;;4.90;4.60;;;17.60;99.90;;;;;;5008754;28;20453;-70
2023/07/31 09:21:03;;;;;;;3.80;3.60;;;17.60;99.90;;;;;;5000313;28;21094;-69
2023/07/31 09:23:43;;;;;;;4.73;4.53;;;17.80;99.90;;;;;;4999833;28;20572;-68
2023/07/31 09:26:09;;;;;;;6.40;6.00;;;17.80;99.90;;;;;;5011108;28;20465;-66
2023/07/31 09:28:37;;;;;;;4.77;4.57;;;17.70;99.90;;;;;;5008213;28;20459;-69
2023/07/31 09:31:04;;;;;;;4.50;4.40;;;17.70;99.90;;;;;;5004820;28;20882;-67
2023/07/31 09:33:31;;;;;;;7.00;6.53;;;17.60;99.90;;;;;;5007961;28;20490;-67
2023/07/31 09:36:00;;;;;;;6.83;6.33;;;17.60;99.90;;;;;;5000632;28;20462;-68
2023/07/31 09:38:27;;;;;;;5.73;5.50;;;17.50;99.90;;;;;;5006218;28;20490;-67
2023/07/31 09:40:59;;;;;;;5.53;5.33;;;17.60;99.90;;;;;;5008152;28;20471;-66
2023/07/31 09:43:27;;;;;;;6.33;6.03;;;17.60;99.90;;;;;;5000301;28;20507;-69
2023/07/31 09:45:58;;;;;;;5.10;5.00;;;17.70;99.90;;;;;;5006167;28;20466;-68
2023/07/31 09:48:27;;;;;;;9.33;7.70;;;17.70;99.90;;;;;;5000668;28;20470;-67
2023/07/31 09:50:55;;;;;;;7.40;7.00;;;17.60;99.90;;;;;;5008417;28;20972;-69
2023/07/31 09:53:30;;;;;;;6.87;6.37;;;17.60;99.90;;;;;;5013835;28;20497;-67
2023/07/31 09:56:00;;;;;;;7.30;6.80;;;17.80;99.90;;;;;;5001803;28;20461;-67
2023/07/31 09:58:30;;;;;;;4.70;4.60;;;17.70;99.90;;;;;;5010078;28;20453;-67
2023/07/31 10:01:00;;;;;;;5.60;5.40;;;17.70;99.90;;;;;;5003548;28;20493;-67
2023/07/31 10:03:28;;;;;;;7.60;6.93;;;17.70;99.90;;;;;;5006891;28;20531;-68
2023/07/31 10:05:57;;;;;;;5.40;5.10;;;17.70;99.90;;;;;;4997901;28;20496;-67
2023/07/31 10:08:30;;;;;;;4.60;4.50;;;17.60;99.90;;;;;;5010906;28;20523;-66
2023/07/31 10:11:01;;;;;;;6.33;6.03;;;17.70;99.90;;;;;;5006088;28;20493;-68
2023/07/31 10:13:29;;;;;;;4.67;4.47;;;17.70;99.90;;;;;;5004131;28;20493;-69
2023/07/31 10:16:00;;;;;;;5.63;5.30;;;17.70;99.90;;;;;;5012965;28;20539;-68
2023/07/31 10:18:28;;;;;;;8.67;5.37;;;17.80;99.90;;;;;;5028363;28;20457;-67
2023/07/31 10:20:57;;;;;;;3.00;2.90;;;18.10;99.90;;;;;;5026899;28;20743;-68
2023/07/31 10:23:25;;;;;;;4.63;4.23;;;18.40;99.90;;;;;;5019313;28;20473;-67
2023/07/31 10:25:54;;;;;;;9.13;5.63;;;18.60;99.90;;;;;;5026892;28;20534;-69
2023/07/31 10:28:24;;;;;;;4.40;4.30;;;18.50;99.90;;;;;;5019230;28;20477;-68
2023/07/31 10:30:52;;;;;;;4.00;3.90;;;18.40;99.90;;;;;;5021552;28;20511;-68
2023/07/31 10:33:21;;;;;;;5.00;4.70;;;18.60;99.90;;;;;;5026428;28;20974;-68
2023/07/31 10:35:48;;;;;;;5.73;5.33;;;18.70;99.90;;;;;;5021674;28;20465;-68
2023/07/31 10:38:16;;;;;;;6.80;6.40;;;18.80;99.90;;;;;;5021557;28;20531;-67
2023/07/31 10:40:42;;;;;;;7.27;6.50;;;18.70;99.90;;;;;;5026310;28;20536;-69
2023/07/31 10:43:24;;;;;;;5.93;5.63;;;18.50;99.90;;;;;;5016601;28;20468;-70
2023/07/31 10:45:52;;;;;;;4.90;4.77;;;18.50;99.90;;;;;;5025278;28;20456;-68
2023/07/31 10:48:18;;;;;;;5.83;5.43;;;18.70;99.90;;;;;;5025036;28;20461;-68
2023/07/31 10:50:49;;;;;;;5.87;5.57;;;18.90;99.90;;;;;;5023807;28;20472;-68
2023/07/31 10:53:24;;;;;;;5.70;5.47;;;18.90;99.90;;;;;;5020315;28;20901;-68
2023/07/31 10:55:51;;;;;;;5.83;5.63;;;19.20;99.90;;;;;;5015221;28;20492;-69
2023/07/31 10:58:20;;;;;;;6.97;6.67;;;19.50;99.90;;;;;;5023559;28;20487;-70
2023/07/31 11:00:47;;;;;;;7.80;7.40;;;19.90;99.90;;;;;;5013323;28;20468;-70
2023/07/31 11:03:18;;;;;;;8.10;7.70;;;20.50;99.90;;;;;;5025276;28;21021;-68
2023/07/31 11:05:46;;;;;;;8.47;8.17;;;20.70;99.90;;;;;;5031702;28;20457;-68
2023/07/31 11:08:14;;;;;;;7.93;7.43;;;20.30;99.90;;;;;;5031113;28;20492;-69
2023/07/31 11:10:41;;;;;;;8.83;8.43;;;20.60;99.90;;;;;;5032943;28;20453;-69
2023/07/31 11:13:08;;;;;;;9.00;8.60;;;20.60;99.90;;;;;;5030729;28;20484;-68
2023/07/31 11:15:35;;;;;;;8.20;7.90;;;20.70;99.90;;;;;;5032738;28;20469;-69
2023/07/31 11:18:05;;;;;;;9.53;8.83;;;20.90;99.90;;;;;;5032372;28;20818;-68
2023/07/31 11:20:34;;;;;;;10.00;9.60;;;20.80;99.90;;;;;;5031923;28;20493;-67
2023/07/31 11:23:04;;;;;;;10.63;10.23;;;20.50;99.90;;;;;;5032252;28;20460;-68
2023/07/31 11:25:33;;;;;;;11.03;10.53;;;20.40;99.90;;;;;;5030559;28;20452;-70
2023/07/31 11:28:05;;;;;;;10.73;10.00;;;20.50;99.90;;;;;;5031969;28;20876;-67
2023/07/31 11:30:32;;;;;;;11.97;11.47;;;20.60;99.90;;;;;;5031158;28;20459;-67
2023/07/31 11:32:59;;;;;;;11.03;10.60;;;20.50;99.90;;;;;;5031124;28;20449;-67
2023/07/31 11:35:26;;;;;;;10.87;10.47;;;20.40;99.90;;;;;;5030062;28;20481;-70
2023/07/31 11:37:53;;;;;;;12.53;11.93;;;20.50;99.90;;;;;;5031761;28;20460;-67
2023/07/31 11:40:21;;;;;;;11.97;11.27;;;20.70;99.90;;;;;;5031856;28;20453;-68
2023/07/31 11:42:49;;;;;;;11.87;11.37;;;20.90;99.90;;;;;;5031457;28;20445;-68
2023/07/31 11:45:16;;;;;;;11.90;11.33;;;21.00;99.90;;;;;;5029906;28;20787;-68
2023/07/31 11:47:42;;;;;;;11.40;11.00;;;21.10;99.90;;;;;;5031909;28;20456;-67
2023/07/31 11:50:12;;;;;;;11.50;11.10;;;21.00;99.90;;;;;;5030537;28;20485;-68
2023/07/31 11:52:44;;;;;;;10.80;10.40;;;20.50;99.90;;;;;;5031374;28;20514;-67
2023/07/31 11:55:14;;;;;;;11.03;10.30;;;20.40;99.90;;;;;;5029674;28;20495;-68
2023/07/31 11:57:44;;;;;;;8.90;8.60;;;20.10;99.90;;;;;;5031166;28;20449;-66
2023/07/31 12:00:13;;;;;;;9.30;8.70;;;19.70;99.90;;;;;;5031035;28;20437;-67
2023/07/31 12:02:40;;;;;;;6.80;6.60;;;19.40;99.90;;;;;;5030877;28;20449;-68
2023/07/31 12:05:11;;;;;;;6.20;5.90;;;19.20;99.90;;;;;;5023813;28;21000;-70
2023/07/31 12:07:45;;;;;;;6.57;6.37;;;19.20;99.90;;;;;;5020369;28;20468;-68
2023/07/31 12:10:24;;;;;;;6.77;6.47;;;19.10;99.90;;;;;;5026102;28;20555;-68
2023/07/31 12:13:00;;;;;;;5.03;4.93;;;18.90;99.90;;;;;;5025281;28;20457;-67
2023/07/31 12:15:35;;;;;;;6.17;5.80;;;18.80;99.90;;;;;;5023592;28;20814;-68
2023/07/31 12:18:06;;;;;;;6.57;6.10;;;18.90;99.90;;;;;;5023396;28;20473;-67
2023/07/31 12:20:33;;;;;;;5.53;5.33;;;18.80;99.90;;;;;;5025878;28;20499;-67
2023/07/31 12:23:00;;;;;;;4.83;4.43;;;18.70;99.90;;;;;;5024250;28;20461;-67
2023/07/31 12:25:36;;;;;;;3.70;3.50;;;18.90;99.90;;;;;;5011841;28;20567;-67
2023/07/31 12:28:11;;;;;;;3.00;2.90;;;19.20;99.90;;;;;;5023328;28;20449;-68
2023/07/31 12:30:38;;;;;;;4.70;4.50;;;19.70;99.90;;;;;;5025296;28;20436;-67
2023/07/31 12:33:07;;;;;;;3.57;3.43;;;19.80;99.90;;;;;;5019850;28;20473;-68
2023/07/31 12:35:38;;;;;;;3.00;2.90;;;20.10;99.90;;;;;;5019106;28;20955;-68
2023/07/31 12:38:05;;;;;;;5.60;3.97;;;20.00;99.90;;;;;;5024386;28;20457;-68
2023/07/31 12:40:33;;;;;;;3.17;3.07;;;19.80;99.90;;;;;;5015889;28;20468;-69
2023/07/31 12:43:03;;;;;;;3.90;3.73;;;20.00;99.90;;;;;;5014973;28;20997;-68
2023/07/31 12:45:30;;;;;;;4.77;4.37;;;20.10;99.90;;;;;;5022756;28;21118;-68
2023/07/31 12:47:57;;;;;;;5.80;5.40;;;20.30;99.90;;;;;;5024517;28;20885;-68
2023/07/31 12:50:25;;;;;;;6.37;6.07;;;20.40;99.90;;;;;;5019212;28;20727;-70